sensor_id;sensor_type;location;lat;lon;timestamp;pressure;altitude;pressure_sealevel;temperature;humidity
20897;BME280;10608;42.600;23.398;2022-10-16T00:01:27;53219.06;;;-138.15;69.22
20897;BME280;10608;42.600;23.398;2022-10-16T00:03:54;53221.03;;;-138.15;68.13
20897;BME280;10608;42.600;23.398;2022-10-16T00:06:21;53248.63;;;-138.15;68.33
20897;BME280;10608;42.600;23.398;2022-10-16T00:08:48;53203.28;;;-138.15;67.92
20897;BME280;10608;42.600;23.398;2022-10-16T00:11:19;53223.00;;;-138.15;67.77
20897;BME280;10608;42.600;23.398;2022-10-16T00:13:57;53213.13;;;-138.15;68.40
20897;BME280;10608;42.600;23.398;2022-10-16T00:16:31;53187.47;;;-138.15;69.62
20897;BME280;10608;42.600;23.398;2022-10-16T00:18:57;53215.09;;;-138.15;69.69
20897;BME280;10608;42.600;23.398;2022-10-16T00:21:25;53211.16;;;-138.15;68.98
20897;BME280;10608;42.600;23.398;2022-10-16T00:23:53;53207.22;;;-138.15;68.88
20897;BME280;10608;42.600;23.398;2022-10-16T00:26:19;53221.03;;;-138.15;68.65
20897;BME280;10608;42.600;23.398;2022-10-16T00:28:50;53213.13;;;-138.15;69.50
20897;BME280;10608;42.600;23.398;2022-10-16T00:31:17;53195.38;;;-138.15;71.00
20897;BME280;10608;42.600;23.398;2022-10-16T00:33:43;53195.38;;;-138.15;72.45
20897;BME280;10608;42.600;23.398;2022-10-16T00:36:11;53211.16;;;-138.15;74.37
20897;BME280;10608;42.600;23.398;2022-10-16T00:38:37;53230.88;;;-138.15;74.42
20897;BME280;10608;42.600;23.398;2022-10-16T00:41:03;53199.31;;;-138.15;74.34
20897;BME280;10608;42.600;23.398;2022-10-16T00:43:47;53211.16;;;-138.15;75.00
20897;BME280;10608;42.600;23.398;2022-10-16T00:46:28;53219.06;;;-138.15;74.56
20897;BME280;10608;42.600;23.398;2022-10-16T00:49:12;53234.84;;;-138.15;74.01
20897;BME280;10608;42.600;23.398;2022-10-16T00:51:45;53219.06;;;-138.15;73.54
20897;BME280;10608;42.600;23.398;2022-10-16T00:54:14;53234.84;;;-138.15;72.73
20897;BME280;10608;42.600;23.398;2022-10-16T00:56:41;53211.16;;;-138.15;72.76
20897;BME280;10608;42.600;23.398;2022-10-16T00:59:15;53185.50;;;-138.15;73.63
20897;BME280;10608;42.600;23.398;2022-10-16T01:01:41;53211.16;;;-138.15;73.92
20897;BME280;10608;42.600;23.398;2022-10-16T01:04:06;53217.06;;;-138.15;73.35
20897;BME280;10608;42.600;23.398;2022-10-16T01:06:52;53201.28;;;-138.15;73.41
20897;BME280;10608;42.600;23.398;2022-10-16T01:09:33;53238.78;;;-138.15;74.66
20897;BME280;10608;42.600;23.398;2022-10-16T01:12:20;53197.34;;;-138.15;73.42
20897;BME280;10608;42.600;23.398;2022-10-16T01:14:58;53226.94;;;-138.15;72.66
20897;BME280;10608;42.600;23.398;2022-10-16T01:17:35;53226.94;;;-138.15;72.54
20897;BME280;10608;42.600;23.398;2022-10-16T01:20:14;53240.75;;;-138.15;72.66
20897;BME280;10608;42.600;23.398;2022-10-16T01:23:16;53207.22;;;-138.15;72.96
20897;BME280;10608;42.600;23.398;2022-10-16T01:28:56;53197.34;;;-138.15;73.60
20897;BME280;10608;42.600;23.398;2022-10-16T01:31:26;53193.41;;;-138.15;73.49
20897;BME280;10608;42.600;23.398;2022-10-16T01:34:07;53246.66;;;-138.15;72.98
20897;BME280;10608;42.600;23.398;2022-10-16T01:36:42;53226.94;;;-138.15;72.57
20897;BME280;10608;42.600;23.398;2022-10-16T01:39:11;53205.25;;;-138.15;72.13
20897;BME280;10608;42.600;23.398;2022-10-16T01:42:03;53211.16;;;-138.15;71.50
20897;BME280;10608;42.600;23.398;2022-10-16T01:44:32;53201.28;;;-138.15;72.96
20897;BME280;10608;42.600;23.398;2022-10-16T01:46:59;53185.50;;;-138.15;72.64
20897;BME280;10608;42.600;23.398;2022-10-16T01:49:29;53193.41;;;-138.15;72.50
20897;BME280;10608;42.600;23.398;2022-10-16T01:51:58;53223.00;;;-138.15;71.83
20897;BME280;10608;42.600;23.398;2022-10-16T01:54:28;53201.28;;;-138.15;72.18
20897;BME280;10608;42.600;23.398;2022-10-16T01:56:57;53187.47;;;-138.15;72.06
20897;BME280;10608;42.600;23.398;2022-10-16T01:59:25;53209.19;;;-138.15;73.41
20897;BME280;10608;42.600;23.398;2022-10-16T02:01:56;53201.28;;;-138.15;74.92
20897;BME280;10608;42.600;23.398;2022-10-16T02:04:29;53240.75;;;-138.15;75.41
20897;BME280;10608;42.600;23.398;2022-10-16T02:06:56;53193.41;;;-138.15;75.59
20897;BME280;10608;42.600;23.398;2022-10-16T02:09:22;53215.09;;;-138.15;75.60
20897;BME280;10608;42.600;23.398;2022-10-16T02:11:47;53226.94;;;-138.15;75.06
20897;BME280;10608;42.600;23.398;2022-10-16T02:14:14;53203.28;;;-138.15;75.30
20897;BME280;10608;42.600;23.398;2022-10-16T02:16:45;53207.22;;;-138.15;74.96
20897;BME280;10608;42.600;23.398;2022-10-16T02:19:15;53209.19;;;-138.15;75.08
20897;BME280;10608;42.600;23.398;2022-10-16T02:21:50;53209.19;;;-138.15;75.37
20897;BME280;10608;42.600;23.398;2022-10-16T02:27:38;53207.22;;;-138.15;75.22
20897;BME280;10608;42.600;23.398;2022-10-16T02:30:07;53270.34;;;-138.15;74.82
20897;BME280;10608;42.600;23.398;2022-10-16T02:32:36;53199.31;;;-138.15;74.80
20897;BME280;10608;42.600;23.398;2022-10-16T02:35:04;53205.25;;;-138.15;75.19
20897;BME280;10608;42.600;23.398;2022-10-16T02:37:30;53187.47;;;-138.15;74.49
20897;BME280;10608;42.600;23.398;2022-10-16T02:39:57;53181.56;;;-138.15;75.02
20897;BME280;10608;42.600;23.398;2022-10-16T02:42:37;53226.94;;;-138.15;74.82
20897;BME280;10608;42.600;23.398;2022-10-16T02:45:03;53197.34;;;-138.15;74.30
20897;BME280;10608;42.600;23.398;2022-10-16T02:47:29;53219.06;;;-138.15;73.71
20897;BME280;10608;42.600;23.398;2022-10-16T02:49:55;53230.88;;;-138.15;72.93
20897;BME280;10608;42.600;23.398;2022-10-16T02:52:20;53193.41;;;-138.15;73.98
20897;BME280;10608;42.600;23.398;2022-10-16T02:54:46;53226.94;;;-138.15;74.05
20897;BME280;10608;42.600;23.398;2022-10-16T02:57:11;53199.31;;;-138.15;74.37
20897;BME280;10608;42.600;23.398;2022-10-16T02:59:37;53199.31;;;-138.15;73.97
20897;BME280;10608;42.600;23.398;2022-10-16T03:02:02;53175.66;;;-138.15;73.73
20897;BME280;10608;42.600;23.398;2022-10-16T03:04:28;53223.00;;;-138.15;72.99
20897;BME280;10608;42.600;23.398;2022-10-16T03:06:53;53215.09;;;-138.15;73.85
20897;BME280;10608;42.600;23.398;2022-10-16T03:09:19;53201.28;;;-138.15;74.61
20897;BME280;10608;42.600;23.398;2022-10-16T03:11:44;53217.06;;;-138.15;73.83
20897;BME280;10608;42.600;23.398;2022-10-16T03:14:10;53203.28;;;-138.15;74.04
20897;BME280;10608;42.600;23.398;2022-10-16T03:16:35;53205.25;;;-138.15;74.75
20897;BME280;10608;42.600;23.398;2022-10-16T03:19:01;53224.97;;;-138.15;75.32
20897;BME280;10608;42.600;23.398;2022-10-16T03:21:26;53217.06;;;-138.15;75.52
20897;BME280;10608;42.600;23.398;2022-10-16T03:23:51;53185.50;;;-138.15;76.14
20897;BME280;10608;42.600;23.398;2022-10-16T03:26:17;53223.00;;;-138.15;76.33
20897;BME280;10608;42.600;23.398;2022-10-16T03:28:42;53219.06;;;-138.15;76.27
20897;BME280;10608;42.600;23.398;2022-10-16T03:31:08;53187.47;;;-138.15;76.05
20897;BME280;10608;42.600;23.398;2022-10-16T03:33:36;53171.69;;;-138.15;75.19
20897;BME280;10608;42.600;23.398;2022-10-16T03:36:01;53189.47;;;-138.15;75.28
20897;BME280;10608;42.600;23.398;2022-10-16T03:38:27;53201.28;;;-138.15;75.13
20897;BME280;10608;42.600;23.398;2022-10-16T03:40:52;53242.72;;;-138.15;75.77
20897;BME280;10608;42.600;23.398;2022-10-16T03:43:18;53185.50;;;-138.15;77.46
20897;BME280;10608;42.600;23.398;2022-10-16T03:45:44;53175.66;;;-138.15;78.50
20897;BME280;10608;42.600;23.398;2022-10-16T03:48:09;53211.16;;;-138.15;79.38
20897;BME280;10608;42.600;23.398;2022-10-16T03:50:35;53191.44;;;-138.15;79.66
20897;BME280;10608;42.600;23.398;2022-10-16T03:53:00;53230.88;;;-138.15;78.93
20897;BME280;10608;42.600;23.398;2022-10-16T03:55:25;53219.06;;;-138.15;78.95
20897;BME280;10608;42.600;23.398;2022-10-16T03:57:54;53167.75;;;-138.15;77.93
20897;BME280;10608;42.600;23.398;2022-10-16T04:00:19;53221.03;;;-138.15;78.48
20897;BME280;10608;42.600;23.398;2022-10-16T04:02:45;53187.47;;;-138.15;79.79
20897;BME280;10608;42.600;23.398;2022-10-16T04:05:11;53207.22;;;-138.15;79.33
20897;BME280;10608;42.600;23.398;2022-10-16T04:07:36;53221.03;;;-138.15;80.32
20897;BME280;10608;42.600;23.398;2022-10-16T04:10:03;53207.22;;;-138.15;81.30
20897;BME280;10608;42.600;23.398;2022-10-16T04:12:28;53226.94;;;-138.15;82.04
20897;BME280;10608;42.600;23.398;2022-10-16T04:14:54;53191.44;;;-138.15;82.41
20897;BME280;10608;42.600;23.398;2022-10-16T04:17:19;53187.47;;;-138.15;82.52
20897;BME280;10608;42.600;23.398;2022-10-16T04:19:45;53209.19;;;-138.15;83.06
20897;BME280;10608;42.600;23.398;2022-10-16T04:22:10;53219.06;;;-138.15;82.92
20897;BME280;10608;42.600;23.398;2022-10-16T04:24:41;53181.56;;;-138.15;83.70
20897;BME280;10608;42.600;23.398;2022-10-16T04:27:07;53209.19;;;-138.15;83.91
20897;BME280;10608;42.600;23.398;2022-10-16T04:29:32;53199.31;;;-138.15;84.41
20897;BME280;10608;42.600;23.398;2022-10-16T04:31:58;53187.47;;;-138.15;85.67
20897;BME280;10608;42.600;23.398;2022-10-16T04:34:23;53187.47;;;-138.15;88.36
20897;BME280;10608;42.600;23.398;2022-10-16T04:36:51;53189.47;;;-138.15;88.75
20897;BME280;10608;42.600;23.398;2022-10-16T04:39:17;53183.53;;;-138.15;88.96
20897;BME280;10608;42.600;23.398;2022-10-16T04:41:43;53205.25;;;-138.15;88.87
20897;BME280;10608;42.600;23.398;2022-10-16T04:44:08;53193.41;;;-138.15;88.91
20897;BME280;10608;42.600;23.398;2022-10-16T04:46:34;53185.50;;;-138.15;88.79
20897;BME280;10608;42.600;23.398;2022-10-16T04:49:00;53219.06;;;-138.15;89.14
20897;BME280;10608;42.600;23.398;2022-10-16T04:51:25;53238.78;;;-138.15;88.43
20897;BME280;10608;42.600;23.398;2022-10-16T04:53:52;53223.00;;;-138.15;88.38
20897;BME280;10608;42.600;23.398;2022-10-16T04:56:18;53187.47;;;-138.15;88.37
20897;BME280;10608;42.600;23.398;2022-10-16T04:58:43;53199.31;;;-138.15;88.54
20897;BME280;10608;42.600;23.398;2022-10-16T05:01:09;53215.09;;;-138.15;88.25
20897;BME280;10608;42.600;23.398;2022-10-16T05:03:34;53205.25;;;-138.15;88.13
20897;BME280;10608;42.600;23.398;2022-10-16T05:06:00;53189.47;;;-138.15;88.06
20897;BME280;10608;42.600;23.398;2022-10-16T05:08:25;53183.53;;;-138.15;88.07
20897;BME280;10608;42.600;23.398;2022-10-16T05:10:51;53193.41;;;-138.15;87.65
20897;BME280;10608;42.600;23.398;2022-10-16T05:13:16;53171.69;;;-138.15;87.79
20897;BME280;10608;42.600;23.398;2022-10-16T05:15:41;53221.03;;;-138.15;87.09
20897;BME280;10608;42.600;23.398;2022-10-16T05:18:08;53197.34;;;-138.15;85.41
20897;BME280;10608;42.600;23.398;2022-10-16T05:20:34;53197.34;;;-138.15;83.63
20897;BME280;10608;42.600;23.398;2022-10-16T05:22:59;53183.53;;;-138.15;79.65
20897;BME280;10608;42.600;23.398;2022-10-16T05:25:25;53177.63;;;-138.15;76.03
20897;BME280;10608;42.600;23.398;2022-10-16T05:27:51;53215.09;;;-138.15;72.12
20897;BME280;10608;42.600;23.398;2022-10-16T05:30:17;53207.22;;;-138.15;67.58
20897;BME280;10608;42.600;23.398;2022-10-16T05:32:50;53205.25;;;-138.15;65.13
20897;BME280;10608;42.600;23.398;2022-10-16T05:35:16;53197.34;;;-138.15;62.11
20897;BME280;10608;42.600;23.398;2022-10-16T05:37:42;53246.66;;;-138.15;60.37
20897;BME280;10608;42.600;23.398;2022-10-16T05:40:09;53228.91;;;-138.15;59.11
20897;BME280;10608;42.600;23.398;2022-10-16T05:42:34;53215.09;;;-138.15;56.15
20897;BME280;10608;42.600;23.398;2022-10-16T05:45:00;53191.44;;;-138.15;54.92
20897;BME280;10608;42.600;23.398;2022-10-16T05:47:25;53191.44;;;-138.15;54.92
20897;BME280;10608;42.600;23.398;2022-10-16T05:49:51;53197.34;;;-138.15;49.76
20897;BME280;10608;42.600;23.398;2022-10-16T05:52:16;53185.50;;;-138.15;48.98
20897;BME280;10608;42.600;23.398;2022-10-16T05:54:42;53221.03;;;-138.15;49.15
20897;BME280;10608;42.600;23.398;2022-10-16T05:57:08;53195.38;;;-138.15;49.03
20897;BME280;10608;42.600;23.398;2022-10-16T05:59:34;53165.78;;;-138.15;47.67
20897;BME280;10608;42.600;23.398;2022-10-16T06:01:59;53177.63;;;-138.15;46.38
20897;BME280;10608;42.600;23.398;2022-10-16T06:04:25;53207.22;;;-138.15;43.48
20897;BME280;10608;42.600;23.398;2022-10-16T06:06:50;53146.06;;;-138.15;41.23
20897;BME280;10608;42.600;23.398;2022-10-16T06:09:16;53177.63;;;-138.15;42.62
20897;BME280;10608;42.600;23.398;2022-10-16T06:11:41;53146.06;;;-138.15;39.57
20897;BME280;10608;42.600;23.398;2022-10-16T06:14:08;53165.78;;;-138.15;40.18
20897;BME280;10608;42.600;23.398;2022-10-16T06:16:35;53155.91;;;-138.15;39.20
20897;BME280;10608;42.600;23.398;2022-10-16T06:19:02;53155.91;;;-138.15;38.29
20897;BME280;10608;42.600;23.398;2022-10-16T06:21:31;53142.13;;;-138.15;40.19
20897;BME280;10608;42.600;23.398;2022-10-16T06:23:58;53151.97;;;-138.15;37.43
20897;BME280;10608;42.600;23.398;2022-10-16T06:26:28;53144.09;;;-138.15;37.22
20897;BME280;10608;42.600;23.398;2022-10-16T06:28:56;53181.56;;;-138.15;38.66
20897;BME280;10608;42.600;23.398;2022-10-16T06:31:21;53150.00;;;-138.15;37.18
20897;BME280;10608;42.600;23.398;2022-10-16T06:33:50;53157.91;;;-138.15;39.54
20897;BME280;10608;42.600;23.398;2022-10-16T06:36:17;53167.75;;;-138.15;38.16
20897;BME280;10608;42.600;23.398;2022-10-16T06:38:44;53136.19;;;-138.15;35.96
20897;BME280;10608;42.600;23.398;2022-10-16T06:41:15;53148.03;;;-138.15;36.78
20897;BME280;10608;42.600;23.398;2022-10-16T06:43:41;53144.09;;;-138.15;37.29
20897;BME280;10608;42.600;23.398;2022-10-16T06:46:09;53128.31;;;-138.15;36.68
20897;BME280;10608;42.600;23.398;2022-10-16T06:48:36;53146.06;;;-138.15;37.82
20897;BME280;10608;42.600;23.398;2022-10-16T06:51:04;53146.06;;;-138.15;36.11
20897;BME280;10608;42.600;23.398;2022-10-16T06:53:32;53151.97;;;-138.15;35.73
20897;BME280;10608;42.600;23.398;2022-10-16T06:55:58;53136.19;;;-138.15;37.68
20897;BME280;10608;42.600;23.398;2022-10-16T06:58:31;53144.09;;;-138.15;36.65
20897;BME280;10608;42.600;23.398;2022-10-16T07:00:56;53136.19;;;-138.15;35.96
20897;BME280;10608;42.600;23.398;2022-10-16T07:03:22;53132.25;;;-138.15;34.84
20897;BME280;10608;42.600;23.398;2022-10-16T07:05:48;53153.94;;;-138.15;32.65
20897;BME280;10608;42.600;23.398;2022-10-16T07:08:13;53132.25;;;-138.15;33.63
20897;BME280;10608;42.600;23.398;2022-10-16T07:10:39;53132.25;;;-138.15;34.75
20897;BME280;10608;42.600;23.398;2022-10-16T07:13:04;53100.69;;;-138.15;35.04
20897;BME280;10608;42.600;23.398;2022-10-16T07:15:29;53108.59;;;-138.15;33.21
20897;BME280;10608;42.600;23.398;2022-10-16T07:17:55;53150.00;;;-138.15;35.25
20897;BME280;10608;42.600;23.398;2022-10-16T07:20:20;53140.13;;;-138.15;35.13
20897;BME280;10608;42.600;23.398;2022-10-16T07:22:46;53132.25;;;-138.15;36.15
20897;BME280;10608;42.600;23.398;2022-10-16T07:25:11;53118.44;;;-138.15;39.32
20897;BME280;10608;42.600;23.398;2022-10-16T07:27:37;53175.66;;;-138.15;38.66
20897;BME280;10608;42.600;23.398;2022-10-16T07:30:03;53132.25;;;-138.15;36.75
20897;BME280;10608;42.600;23.398;2022-10-16T07:32:29;53128.31;;;-138.15;35.15
20897;BME280;10608;42.600;23.398;2022-10-16T07:34:54;53136.19;;;-138.15;35.13
20897;BME280;10608;42.600;23.398;2022-10-16T07:37:21;53169.72;;;-138.15;36.33
20897;BME280;10608;42.600;23.398;2022-10-16T07:39:46;53132.25;;;-138.15;37.22
20897;BME280;10608;42.600;23.398;2022-10-16T07:42:12;53126.34;;;-138.15;36.36
20897;BME280;10608;42.600;23.398;2022-10-16T07:44:37;53159.88;;;-138.15;33.45
20897;BME280;10608;42.600;23.398;2022-10-16T07:47:03;53106.59;;;-138.15;31.53
20897;BME280;10608;42.600;23.398;2022-10-16T07:49:28;53116.47;;;-138.15;29.69
20897;BME280;10608;42.600;23.398;2022-10-16T07:51:54;53084.91;;;-138.15;28.20
20897;BME280;10608;42.600;23.398;2022-10-16T07:54:19;53110.56;;;-138.15;26.86
20897;BME280;10608;42.600;23.398;2022-10-16T07:56:44;53065.19;;;-138.15;26.34
20897;BME280;10608;42.600;23.398;2022-10-16T07:59:10;53039.53;;;-138.15;23.78
20897;BME280;10608;42.600;23.398;2022-10-16T08:01:36;53094.78;;;-138.15;26.30
20897;BME280;10608;42.600;23.398;2022-10-16T08:04:01;53065.19;;;-138.15;24.65
20897;BME280;10608;42.600;23.398;2022-10-16T08:06:26;53069.13;;;-138.15;25.15
20897;BME280;10608;42.600;23.398;2022-10-16T08:08:52;53120.41;;;-138.15;28.94
20897;BME280;10608;42.600;23.398;2022-10-16T08:11:17;53102.66;;;-138.15;27.37
20897;BME280;10608;42.600;23.398;2022-10-16T08:13:43;53124.38;;;-138.15;28.72
20897;BME280;10608;42.600;23.398;2022-10-16T08:16:08;53100.69;;;-138.15;29.44
20897;BME280;10608;42.600;23.398;2022-10-16T08:18:39;53126.34;;;-138.15;28.38
20897;BME280;10608;42.600;23.398;2022-10-16T08:21:06;53112.53;;;-138.15;26.56
20897;BME280;10608;42.600;23.398;2022-10-16T08:23:32;53098.72;;;-138.15;26.72
20897;BME280;10608;42.600;23.398;2022-10-16T08:26:04;53118.44;;;-138.15;26.27
20897;BME280;10608;42.600;23.398;2022-10-16T08:28:30;53130.28;;;-138.15;27.17
20897;BME280;10608;42.600;23.398;2022-10-16T08:30:55;53094.78;;;-138.15;27.23
20897;BME280;10608;42.600;23.398;2022-10-16T08:33:22;53077.03;;;-138.15;27.08
20897;BME280;10608;42.600;23.398;2022-10-16T08:35:54;53086.88;;;-138.15;26.15
20897;BME280;10608;42.600;23.398;2022-10-16T08:38:20;53061.25;;;-138.15;24.35
20897;BME280;10608;42.600;23.398;2022-10-16T08:40:45;53041.50;;;-138.15;24.28
20897;BME280;10608;42.600;23.398;2022-10-16T08:43:34;53128.31;;;-138.15;26.41
20897;BME280;10608;42.600;23.398;2022-10-16T08:46:29;53110.56;;;-138.15;24.85
20897;BME280;10608;42.600;23.398;2022-10-16T08:49:00;53045.47;;;-138.15;23.00
20897;BME280;10608;42.600;23.398;2022-10-16T08:51:30;53075.03;;;-138.15;23.35
20897;BME280;10608;42.600;23.398;2022-10-16T08:56:41;53073.06;;;-138.15;24.97
20897;BME280;10608;42.600;23.398;2022-10-16T08:59:10;53090.81;;;-138.15;23.44
20897;BME280;10608;42.600;23.398;2022-10-16T09:01:40;53069.13;;;-138.15;23.20
20897;BME280;10608;42.600;23.398;2022-10-16T09:06:58;53092.81;;;-138.15;23.34
20897;BME280;10608;42.600;23.398;2022-10-16T09:12:22;53084.91;;;-138.15;23.69
20897;BME280;10608;42.600;23.398;2022-10-16T09:15:14;53110.56;;;-138.15;23.51
20897;BME280;10608;42.600;23.398;2022-10-16T09:23:25;53031.66;;;-138.15;20.73
20897;BME280;10608;42.600;23.398;2022-10-16T09:25:52;53098.72;;;-138.15;22.56
20897;BME280;10608;42.600;23.398;2022-10-16T09:28:19;53061.25;;;-138.15;20.94
20897;BME280;10608;42.600;23.398;2022-10-16T09:30:45;53037.56;;;-138.15;20.37
20897;BME280;10608;42.600;23.398;2022-10-16T09:33:12;53045.47;;;-138.15;20.42
20897;BME280;10608;42.600;23.398;2022-10-16T09:35:42;53049.41;;;-138.15;19.26
20897;BME280;10608;42.600;23.398;2022-10-16T09:38:08;53033.63;;;-138.15;19.71
20897;BME280;10608;42.600;23.398;2022-10-16T09:40:36;53025.72;;;-138.15;19.84
20897;BME280;10608;42.600;23.398;2022-10-16T09:45:37;53025.72;;;-138.15;19.21
20897;BME280;10608;42.600;23.398;2022-10-16T09:48:11;53011.91;;;-138.15;18.48
20897;BME280;10608;42.600;23.398;2022-10-16T09:50:36;53015.88;;;-138.15;18.40
20897;BME280;10608;42.600;23.398;2022-10-16T09:53:12;53025.72;;;-138.15;19.82
20897;BME280;10608;42.600;23.398;2022-10-16T09:55:48;53092.81;;;-138.15;23.21
20897;BME280;10608;42.600;23.398;2022-10-16T09:58:14;53146.06;;;-138.15;26.95
20897;BME280;10608;42.600;23.398;2022-10-16T10:00:41;53151.97;;;-138.15;28.31
20897;BME280;10608;42.600;23.398;2022-10-16T10:03:11;53140.13;;;-138.15;27.71
20897;BME280;10608;42.600;23.398;2022-10-16T10:05:39;53132.25;;;-138.15;28.28
20897;BME280;10608;42.600;23.398;2022-10-16T10:08:05;53144.09;;;-138.15;29.69
20897;BME280;10608;42.600;23.398;2022-10-16T10:10:33;53155.91;;;-138.15;29.34
20897;BME280;10608;42.600;23.398;2022-10-16T10:13:01;53165.78;;;-138.15;29.97
20897;BME280;10608;42.600;23.398;2022-10-16T10:15:33;53138.16;;;-138.15;28.93
20897;BME280;10608;42.600;23.398;2022-10-16T10:18:00;53116.47;;;-138.15;28.60
20897;BME280;10608;42.600;23.398;2022-10-16T10:20:35;53157.91;;;-138.15;28.66
20897;BME280;10608;42.600;23.398;2022-10-16T10:23:24;53110.56;;;-138.15;28.97
20897;BME280;10608;42.600;23.398;2022-10-16T10:26:18;53136.19;;;-138.15;28.08
20897;BME280;10608;42.600;23.398;2022-10-16T10:29:00;53195.38;;;-138.15;29.74
20897;BME280;10608;42.600;23.398;2022-10-16T10:36:52;53165.78;;;-138.15;28.90
20897;BME280;10608;42.600;23.398;2022-10-16T10:39:45;53136.19;;;-138.15;29.14
20897;BME280;10608;42.600;23.398;2022-10-16T10:42:30;53153.94;;;-138.15;27.91
20897;BME280;10608;42.600;23.398;2022-10-16T10:45:41;53173.69;;;-138.15;29.04
20897;BME280;10608;42.600;23.398;2022-10-16T10:50:57;53171.69;;;-138.15;29.59
20897;BME280;10608;42.600;23.398;2022-10-16T11:01:12;53148.03;;;-138.15;29.22
20897;BME280;10608;42.600;23.398;2022-10-16T11:06:29;53197.34;;;-138.15;29.35
20897;BME280;10608;42.600;23.398;2022-10-16T11:09:10;53155.91;;;-138.15;29.07
20897;BME280;10608;42.600;23.398;2022-10-16T11:11:43;53167.75;;;-138.15;29.37
20897;BME280;10608;42.600;23.398;2022-10-16T11:14:24;53136.19;;;-138.15;29.06
20897;BME280;10608;42.600;23.398;2022-10-16T11:16:56;53159.88;;;-138.15;28.12
20897;BME280;10608;42.600;23.398;2022-10-16T11:22:15;53138.16;;;-138.15;27.50
20897;BME280;10608;42.600;23.398;2022-10-16T11:24:47;53146.06;;;-138.15;28.04
20897;BME280;10608;42.600;23.398;2022-10-16T11:27:21;53151.97;;;-138.15;26.48
20897;BME280;10608;42.600;23.398;2022-10-16T11:30:00;53167.75;;;-138.15;25.45
20897;BME280;10608;42.600;23.398;2022-10-16T11:32:40;53167.75;;;-138.15;24.95
20897;BME280;10608;42.600;23.398;2022-10-16T11:38:12;53171.69;;;-138.15;26.34
20897;BME280;10608;42.600;23.398;2022-10-16T11:40:42;53171.69;;;-138.15;25.95
20897;BME280;10608;42.600;23.398;2022-10-16T11:43:17;53142.13;;;-138.15;24.47
20897;BME280;10608;42.600;23.398;2022-10-16T11:45:53;53144.09;;;-138.15;24.56
20897;BME280;10608;42.600;23.398;2022-10-16T11:51:33;53157.91;;;-138.15;25.16
20897;BME280;10608;42.600;23.398;2022-10-16T11:54:39;53151.97;;;-138.15;25.25
20897;BME280;10608;42.600;23.398;2022-10-16T11:57:01;53140.13;;;-138.15;24.80
20897;BME280;10608;42.600;23.398;2022-10-16T11:59:44;53175.66;;;-138.15;25.08
20897;BME280;10608;42.600;23.398;2022-10-16T12:08:28;53126.34;;;-138.15;24.65
20897;BME280;10608;42.600;23.398;2022-10-16T12:10:54;53140.13;;;-138.15;24.28
20897;BME280;10608;42.600;23.398;2022-10-16T12:18:38;53167.75;;;-138.15;24.25
20897;BME280;10608;42.600;23.398;2022-10-16T12:21:04;53151.97;;;-138.15;24.13
20897;BME280;10608;42.600;23.398;2022-10-16T12:23:38;53146.06;;;-138.15;23.17
20897;BME280;10608;42.600;23.398;2022-10-16T12:26:11;53159.88;;;-138.15;23.74
20897;BME280;10608;42.600;23.398;2022-10-16T12:28:36;53161.84;;;-138.15;22.37
20897;BME280;10608;42.600;23.398;2022-10-16T12:31:08;53167.75;;;-138.15;23.31
20897;BME280;10608;42.600;23.398;2022-10-16T12:33:37;53128.31;;;-138.15;23.23
20897;BME280;10608;42.600;23.398;2022-10-16T12:38:46;53138.16;;;-138.15;23.58
20897;BME280;10608;42.600;23.398;2022-10-16T12:41:12;53157.91;;;-138.15;24.40
20897;BME280;10608;42.600;23.398;2022-10-16T12:43:48;53167.75;;;-138.15;24.26
20897;BME280;10608;42.600;23.398;2022-10-16T12:48:41;53114.50;;;-138.15;24.69
20897;BME280;10608;42.600;23.398;2022-10-16T12:51:33;53138.16;;;-138.15;24.68
20897;BME280;10608;42.600;23.398;2022-10-16T12:59:42;53142.13;;;-138.15;24.40
20897;BME280;10608;42.600;23.398;2022-10-16T13:02:39;53159.88;;;-138.15;24.38
20897;BME280;10608;42.600;23.398;2022-10-16T13:10:44;53175.66;;;-138.15;24.15
20897;BME280;10608;42.600;23.398;2022-10-16T13:15:56;53159.88;;;-138.15;24.91
20897;BME280;10608;42.600;23.398;2022-10-16T13:24:03;53179.59;;;-138.15;24.63
20897;BME280;10608;42.600;23.398;2022-10-16T13:26:44;53136.19;;;-138.15;24.54
20897;BME280;10608;42.600;23.398;2022-10-16T13:29:12;53114.50;;;-138.15;24.75
20897;BME280;10608;42.600;23.398;2022-10-16T13:31:39;53173.69;;;-138.15;24.43
20897;BME280;10608;42.600;23.398;2022-10-16T13:34:05;53175.66;;;-138.15;24.56
20897;BME280;10608;42.600;23.398;2022-10-16T13:36:42;53148.03;;;-138.15;24.61
20897;BME280;10608;42.600;23.398;2022-10-16T13:39:29;53136.19;;;-138.15;25.82
20897;BME280;10608;42.600;23.398;2022-10-16T13:42:04;53142.13;;;-138.15;26.05
20897;BME280;10608;42.600;23.398;2022-10-16T13:44:50;53136.19;;;-138.15;26.04
20897;BME280;10608;42.600;23.398;2022-10-16T13:47:18;53175.66;;;-138.15;26.45
20897;BME280;10608;42.600;23.398;2022-10-16T13:49:44;53187.47;;;-138.15;26.04
20897;BME280;10608;42.600;23.398;2022-10-16T13:52:20;53163.81;;;-138.15;26.12
20897;BME280;10608;42.600;23.398;2022-10-16T13:54:46;53155.91;;;-138.15;26.05
20897;BME280;10608;42.600;23.398;2022-10-16T13:57:14;53151.97;;;-138.15;25.75
20897;BME280;10608;42.600;23.398;2022-10-16T13:59:40;53146.06;;;-138.15;25.90
20897;BME280;10608;42.600;23.398;2022-10-16T14:02:34;53126.34;;;-138.15;25.65
20897;BME280;10608;42.600;23.398;2022-10-16T14:05:04;53144.09;;;-138.15;26.45
20897;BME280;10608;42.600;23.398;2022-10-16T14:07:34;53102.66;;;-138.15;26.10
20897;BME280;10608;42.600;23.398;2022-10-16T14:10:22;53157.91;;;-138.15;26.17